| |
Missouri Department of Transportation

Social Media Facebook Twitter Flickr Instagram YouTube RSS

Current AWOS Information

 
AWOS Home - General Info for all Airports
Current AWOS for all Airports - Current METAR for all Airports
Glossary - Disclaimer - Other Links


MARSHALL--MARSHALL MEMORIAL MUNICIPAL--KMHL
 
Recent AWOS History
 
01/22/17     02:32 PM CST      20:32 GMT
Air Temperature 39°F (4°C ) 1st Cloud Layer Overcast at 400 feet
Dew Point 38°F (3°C) 2nd Cloud Layer  
Barometric Pressure 29.68 in Hg. 3rd Cloud Layer  
Wind Speed 15 mph (13 knots) Density Altitude  
Peak Wind Gusts 21 mph (19 knots) Variable Wind Directions  
Wind Direction Quadrant(330°) Variable Visibility  
Visibility 3 statute miles  

Thunderstorm and Precipitation Identification:  Unknown Precipitation
Thunderstorm Remarks: 

Current METAR Record: METAR KMHL 222036Z AUTO 33011G17KT 3SM UP OVC004 04/03 A2968 RMK AO2

 

 

 

About Us
How Do I...
Contact Us
Missouri Department of Transportation
Central Office
105 W. Capitol Avenue
Jefferson City, MO 65102
1-888-ASK-MODOT (275-6636)
1-866-831-6277 (Motor Carrier Services)
Driver's License Offices
horz_bar
| | |
Missouri State Government
© 2013 Missouri Department of Transportation. All Rights Reserved.   Privacy Policy.
 
 
 
 
RSS FeedYoutubeBlogFlickrTwitter Facebook